Bible Grove, Illinois
Current Conditions -  °F | °C
As of 11:15 PM on Friday 21 Nov 2014 (Local Time) from KFOA Reporting Station
Scattered Clouds Scattered Clouds  
Wind Chill:   Ceiling: Unl
Heat Index:   Visibility: 10mi
Dew Point: -1°   Wind: 7mph
Humidity: 77%   Direction: 150°SSE
Pressure: 30.28"   Gusts: NA
Location:  38.8267°N, 88.5024°W
Report Text: KFOA 220515Z AUTO 15006KT 10SM SCT060 03/M01 A3028 RMK AO2 T00261010
Loading
Personal Weather Stations






























Interactive Weather Map New forecast layout! Learn more

10-Day Weather Forecast

Advertisements
Track Severe Weather on mobile